sensor_id;sensor_type;location;lat;lon;timestamp;P1;durP1;ratioP1;P2;durP2;ratioP2
50086;SDS011;35967;50.718;7.050;2022-12-22T00:10:03;0.67;;;0.20;;
50086;SDS011;35967;50.718;7.050;2022-12-22T00:20:24;0.10;;;0.10;;
50086;SDS011;35967;50.718;7.050;2022-12-22T00:30:46;0.57;;;0.10;;
50086;SDS011;35967;50.718;7.050;2022-12-22T00:41:07;0.20;;;0.00;;
50086;SDS011;35967;50.718;7.050;2022-12-22T00:51:29;0.00;;;0.00;;
50086;SDS011;35967;50.718;7.050;2022-12-22T01:01:51;0.10;;;0.10;;
50086;SDS011;35967;50.718;7.050;2022-12-22T01:12:14;0.10;;;0.10;;
50086;SDS011;35967;50.718;7.050;2022-12-22T01:22:39;1.60;;;0.10;;
50086;SDS011;35967;50.718;7.050;2022-12-22T01:33:02;0.77;;;0.10;;
50086;SDS011;35967;50.718;7.050;2022-12-22T01:43:23;0.13;;;0.10;;
50086;SDS011;35967;50.718;7.050;2022-12-22T01:53:47;0.10;;;0.10;;
50086;SDS011;35967;50.718;7.050;2022-12-22T02:04:08;0.47;;;0.10;;
50086;SDS011;35967;50.718;7.050;2022-12-22T02:14:31;0.80;;;0.10;;
50086;SDS011;35967;50.718;7.050;2022-12-22T02:25:01;0.40;;;0.10;;
50086;SDS011;35967;50.718;7.050;2022-12-22T02:35:25;5.37;;;0.30;;
50086;SDS011;35967;50.718;7.050;2022-12-22T02:45:48;1.07;;;0.10;;
50086;SDS011;35967;50.718;7.050;2022-12-22T02:56:15;0.43;;;0.10;;
50086;SDS011;35967;50.718;7.050;2022-12-22T03:06:36;1.40;;;0.10;;
50086;SDS011;35967;50.718;7.050;2022-12-22T03:16:58;0.20;;;0.10;;
50086;SDS011;35967;50.718;7.050;2022-12-22T03:27:18;2.23;;;0.20;;
50086;SDS011;35967;50.718;7.050;2022-12-22T03:37:23;0.20;;;0.10;;
50086;SDS011;35967;50.718;7.050;2022-12-22T03:47:26;1.63;;;0.20;;
50086;SDS011;35967;50.718;7.050;2022-12-22T03:57:30;3.00;;;0.27;;
50086;SDS011;35967;50.718;7.050;2022-12-22T04:07:33;1.77;;;0.20;;
50086;SDS011;35967;50.718;7.050;2022-12-22T04:17:37;1.23;;;0.30;;
50086;SDS011;35967;50.718;7.050;2022-12-22T04:27:40;1.13;;;0.50;;
50086;SDS011;35967;50.718;7.050;2022-12-22T04:37:45;1.83;;;0.30;;
50086;SDS011;35967;50.718;7.050;2022-12-22T04:47:49;2.30;;;0.10;;
50086;SDS011;35967;50.718;7.050;2022-12-22T04:57:53;3.13;;;0.17;;
50086;SDS011;35967;50.718;7.050;2022-12-22T05:07:56;0.67;;;0.20;;
50086;SDS011;35967;50.718;7.050;2022-12-22T05:18:01;1.33;;;0.17;;
50086;SDS011;35967;50.718;7.050;2022-12-22T05:28:05;0.87;;;0.20;;
50086;SDS011;35967;50.718;7.050;2022-12-22T05:38:09;3.30;;;0.30;;
50086;SDS011;35967;50.718;7.050;2022-12-22T05:48:13;0.20;;;0.10;;
50086;SDS011;35967;50.718;7.050;2022-12-22T05:58:17;8.80;;;0.33;;
50086;SDS011;35967;50.718;7.050;2022-12-22T06:08:20;1.47;;;0.20;;
50086;SDS011;35967;50.718;7.050;2022-12-22T06:18:25;2.13;;;0.37;;
50086;SDS011;35967;50.718;7.050;2022-12-22T06:28:28;5.37;;;0.40;;
50086;SDS011;35967;50.718;7.050;2022-12-22T06:38:34;2.67;;;0.20;;
50086;SDS011;35967;50.718;7.050;2022-12-22T06:48:37;0.97;;;0.10;;
50086;SDS011;35967;50.718;7.050;2022-12-22T06:58:41;2.77;;;0.60;;
50086;SDS011;35967;50.718;7.050;2022-12-22T07:08:44;1.40;;;0.30;;
50086;SDS011;35967;50.718;7.050;2022-12-22T07:18:49;1.10;;;0.30;;
50086;SDS011;35967;50.718;7.050;2022-12-22T07:28:52;1.33;;;0.50;;
50086;SDS011;35967;50.718;7.050;2022-12-22T07:38:57;3.67;;;0.60;;
50086;SDS011;35967;50.718;7.050;2022-12-22T07:49:00;2.43;;;0.60;;
50086;SDS011;35967;50.718;7.050;2022-12-22T07:59:22;5.37;;;0.57;;
50086;SDS011;35967;50.718;7.050;2022-12-22T08:09:25;1.70;;;0.80;;
50086;SDS011;35967;50.718;7.050;2022-12-22T08:19:29;1.83;;;0.90;;
50086;SDS011;35967;50.718;7.050;2022-12-22T08:29:34;2.47;;;1.10;;
50086;SDS011;35967;50.718;7.050;2022-12-22T08:39:43;3.43;;;1.67;;
50086;SDS011;35967;50.718;7.050;2022-12-22T08:49:49;6.77;;;3.00;;
50086;SDS011;35967;50.718;7.050;2022-12-22T08:59:54;7.17;;;4.27;;
50086;SDS011;35967;50.718;7.050;2022-12-22T09:09:57;6.93;;;3.00;;
50086;SDS011;35967;50.718;7.050;2022-12-22T09:20:01;9.07;;;5.93;;
50086;SDS011;35967;50.718;7.050;2022-12-22T09:30:05;14.93;;;8.77;;
50086;SDS011;35967;50.718;7.050;2022-12-22T09:40:11;20.90;;;10.07;;
50086;SDS011;35967;50.718;7.050;2022-12-22T09:50:15;22.40;;;10.57;;
50086;SDS011;35967;50.718;7.050;2022-12-22T10:00:21;26.87;;;12.43;;
50086;SDS011;35967;50.718;7.050;2022-12-22T10:10:26;25.70;;;11.87;;
50086;SDS011;35967;50.718;7.050;2022-12-22T10:20:33;19.80;;;11.43;;
50086;SDS011;35967;50.718;7.050;2022-12-22T10:30:41;21.90;;;11.50;;
50086;SDS011;35967;50.718;7.050;2022-12-22T10:40:46;21.93;;;11.00;;
50086;SDS011;35967;50.718;7.050;2022-12-22T10:50:57;18.07;;;10.20;;
50086;SDS011;35967;50.718;7.050;2022-12-22T11:01:03;20.17;;;10.93;;
50086;SDS011;35967;50.718;7.050;2022-12-22T11:11:08;19.50;;;12.10;;
50086;SDS011;35967;50.718;7.050;2022-12-22T11:21:18;18.30;;;11.32;;
50086;SDS011;35967;50.718;7.050;2022-12-22T11:31:35;22.33;;;12.97;;
50086;SDS011;35967;50.718;7.050;2022-12-22T11:41:54;18.43;;;11.20;;
50086;SDS011;35967;50.718;7.050;2022-12-22T11:52:08;15.87;;;9.63;;
50086;SDS011;35967;50.718;7.050;2022-12-22T12:12:58;12.57;;;6.67;;
50086;SDS011;35967;50.718;7.050;2022-12-22T12:23:15;11.57;;;6.80;;
50086;SDS011;35967;50.718;7.050;2022-12-22T12:33:35;10.53;;;6.50;;
50086;SDS011;35967;50.718;7.050;2022-12-22T12:43:42;11.17;;;5.20;;
50086;SDS011;35967;50.718;7.050;2022-12-22T12:54:20;10.37;;;5.63;;
50086;SDS011;35967;50.718;7.050;2022-12-22T13:15:30;7.77;;;3.87;;
50086;SDS011;35967;50.718;7.050;2022-12-22T13:25:39;5.57;;;3.20;;
50086;SDS011;35967;50.718;7.050;2022-12-22T13:35:47;8.57;;;4.33;;
50086;SDS011;35967;50.718;7.050;2022-12-22T13:46:01;8.17;;;4.00;;
50086;SDS011;35967;50.718;7.050;2022-12-22T13:56:06;8.03;;;3.73;;
50086;SDS011;35967;50.718;7.050;2022-12-22T14:06:22;11.75;;;4.10;;
50086;SDS011;35967;50.718;7.050;2022-12-22T14:16:29;6.70;;;3.50;;
50086;SDS011;35967;50.718;7.050;2022-12-22T14:26:33;11.17;;;4.70;;
50086;SDS011;35967;50.718;7.050;2022-12-22T14:36:38;6.03;;;3.87;;
50086;SDS011;35967;50.718;7.050;2022-12-22T14:47:00;6.80;;;2.77;;
50086;SDS011;35967;50.718;7.050;2022-12-22T14:57:13;3.90;;;2.17;;
50086;SDS011;35967;50.718;7.050;2022-12-22T15:07:23;6.43;;;1.40;;
50086;SDS011;35967;50.718;7.050;2022-12-22T15:17:46;2.53;;;1.20;;
50086;SDS011;35967;50.718;7.050;2022-12-22T15:27:53;5.13;;;1.20;;
50086;SDS011;35967;50.718;7.050;2022-12-22T15:37:57;2.43;;;0.80;;
50086;SDS011;35967;50.718;7.050;2022-12-22T15:48:02;2.10;;;1.10;;
50086;SDS011;35967;50.718;7.050;2022-12-22T15:58:07;1.37;;;0.80;;
50086;SDS011;35967;50.718;7.050;2022-12-22T16:08:15;10.73;;;4.47;;
50086;SDS011;35967;50.718;7.050;2022-12-22T16:18:21;19.07;;;6.70;;
50086;SDS011;35967;50.718;7.050;2022-12-22T16:28:26;10.23;;;4.43;;
50086;SDS011;35967;50.718;7.050;2022-12-22T16:38:29;1.47;;;0.37;;
50086;SDS011;35967;50.718;7.050;2022-12-22T16:48:34;0.70;;;0.37;;
50086;SDS011;35967;50.718;7.050;2022-12-22T16:58:41;0.77;;;0.40;;
50086;SDS011;35967;50.718;7.050;2022-12-22T17:08:45;1.77;;;0.40;;
50086;SDS011;35967;50.718;7.050;2022-12-22T17:18:48;29.20;;;9.70;;
50086;SDS011;35967;50.718;7.050;2022-12-22T17:28:53;47.70;;;15.20;;
50086;SDS011;35967;50.718;7.050;2022-12-22T17:38:56;15.13;;;3.70;;
50086;SDS011;35967;50.718;7.050;2022-12-22T17:49:01;7.70;;;1.00;;
50086;SDS011;35967;50.718;7.050;2022-12-22T17:59:04;5.83;;;1.07;;
50086;SDS011;35967;50.718;7.050;2022-12-22T18:09:10;16.33;;;3.70;;
50086;SDS011;35967;50.718;7.050;2022-12-22T18:19:22;6.20;;;0.80;;
50086;SDS011;35967;50.718;7.050;2022-12-22T18:29:26;7.17;;;0.80;;
50086;SDS011;35967;50.718;7.050;2022-12-22T18:39:30;7.00;;;0.70;;
50086;SDS011;35967;50.718;7.050;2022-12-22T18:49:35;13.63;;;4.60;;
50086;SDS011;35967;50.718;7.050;2022-12-22T18:59:38;6.80;;;0.77;;
50086;SDS011;35967;50.718;7.050;2022-12-22T19:09:42;8.47;;;0.90;;
50086;SDS011;35967;50.718;7.050;2022-12-22T19:19:45;6.47;;;1.23;;
50086;SDS011;35967;50.718;7.050;2022-12-22T19:29:50;17.40;;;2.70;;
50086;SDS011;35967;50.718;7.050;2022-12-22T19:40:04;17.83;;;4.53;;
50086;SDS011;35967;50.718;7.050;2022-12-22T19:50:13;23.30;;;6.90;;
50086;SDS011;35967;50.718;7.050;2022-12-22T20:00:18;17.27;;;3.22;;
50086;SDS011;35967;50.718;7.050;2022-12-22T20:10:24;16.17;;;2.43;;
50086;SDS011;35967;50.718;7.050;2022-12-22T20:20:30;18.97;;;2.30;;
50086;SDS011;35967;50.718;7.050;2022-12-22T20:30:35;14.57;;;2.30;;
50086;SDS011;35967;50.718;7.050;2022-12-22T20:40:38;15.23;;;1.93;;
50086;SDS011;35967;50.718;7.050;2022-12-22T20:50:43;16.10;;;2.20;;
50086;SDS011;35967;50.718;7.050;2022-12-22T21:00:46;23.30;;;2.50;;
50086;SDS011;35967;50.718;7.050;2022-12-22T21:10:51;15.90;;;2.40;;
50086;SDS011;35967;50.718;7.050;2022-12-22T21:20:55;12.97;;;1.97;;
50086;SDS011;35967;50.718;7.050;2022-12-22T21:31:00;19.97;;;2.90;;
50086;SDS011;35967;50.718;7.050;2022-12-22T21:41:04;10.83;;;1.97;;
50086;SDS011;35967;50.718;7.050;2022-12-22T21:51:09;8.63;;;1.77;;
50086;SDS011;35967;50.718;7.050;2022-12-22T22:01:13;9.83;;;2.17;;
50086;SDS011;35967;50.718;7.050;2022-12-22T22:11:19;10.17;;;2.10;;
50086;SDS011;35967;50.718;7.050;2022-12-22T22:21:24;20.30;;;5.57;;
50086;SDS011;35967;50.718;7.050;2022-12-22T22:31:46;21.73;;;3.80;;
50086;SDS011;35967;50.718;7.050;2022-12-22T22:41:49;6.57;;;1.80;;
50086;SDS011;35967;50.718;7.050;2022-12-22T22:51:54;7.90;;;1.73;;
50086;SDS011;35967;50.718;7.050;2022-12-22T23:01:57;5.93;;;2.20;;
50086;SDS011;35967;50.718;7.050;2022-12-22T23:12:02;6.97;;;2.83;;
50086;SDS011;35967;50.718;7.050;2022-12-22T23:22:06;5.77;;;2.37;;
50086;SDS011;35967;50.718;7.050;2022-12-22T23:32:10;13.73;;;4.47;;
50086;SDS011;35967;50.718;7.050;2022-12-22T23:42:13;8.23;;;2.70;;
50086;SDS011;35967;50.718;7.050;2022-12-22T23:52:18;16.10;;;4.33;;
